sensor_id;sensor_type;location;lat;lon;timestamp;temperature;humidity
59128;DHT22;44912;52.754;5.994;2023-08-12T00:02:11;19.90;99.90
59128;DHT22;44912;52.754;5.994;2023-08-12T00:04:37;19.90;99.90
59128;DHT22;44912;52.754;5.994;2023-08-12T00:07:03;20.00;99.90
59128;DHT22;44912;52.754;5.994;2023-08-12T00:09:28;20.00;99.90
59128;DHT22;44912;52.754;5.994;2023-08-12T00:11:54;20.00;99.90
59128;DHT22;44912;52.754;5.994;2023-08-12T00:14:19;20.00;99.90
59128;DHT22;44912;52.754;5.994;2023-08-12T00:16:45;20.00;99.90
59128;DHT22;44912;52.754;5.994;2023-08-12T00:19:10;19.90;99.90
59128;DHT22;44912;52.754;5.994;2023-08-12T00:21:36;19.90;99.90
59128;DHT22;44912;52.754;5.994;2023-08-12T00:24:01;19.90;99.90
59128;DHT22;44912;52.754;5.994;2023-08-12T00:26:27;19.90;99.90
59128;DHT22;44912;52.754;5.994;2023-08-12T00:28:53;19.90;99.90
59128;DHT22;44912;52.754;5.994;2023-08-12T00:31:18;19.90;99.90
59128;DHT22;44912;52.754;5.994;2023-08-12T00:33:44;19.80;99.90
59128;DHT22;44912;52.754;5.994;2023-08-12T00:36:09;19.80;99.90
59128;DHT22;44912;52.754;5.994;2023-08-12T00:38:35;19.90;99.90
59128;DHT22;44912;52.754;5.994;2023-08-12T00:41:00;19.80;99.90
59128;DHT22;44912;52.754;5.994;2023-08-12T00:43:26;19.80;99.90
59128;DHT22;44912;52.754;5.994;2023-08-12T00:45:52;19.90;99.90
59128;DHT22;44912;52.754;5.994;2023-08-12T00:48:18;19.80;99.90
59128;DHT22;44912;52.754;5.994;2023-08-12T00:50:44;19.80;99.90
59128;DHT22;44912;52.754;5.994;2023-08-12T00:53:11;19.80;99.90
59128;DHT22;44912;52.754;5.994;2023-08-12T00:55:37;19.80;99.90
59128;DHT22;44912;52.754;5.994;2023-08-12T00:58:03;19.80;99.90
59128;DHT22;44912;52.754;5.994;2023-08-12T01:00:31;19.80;99.90
59128;DHT22;44912;52.754;5.994;2023-08-12T01:02:56;19.80;99.90
59128;DHT22;44912;52.754;5.994;2023-08-12T01:05:22;19.80;99.90
59128;DHT22;44912;52.754;5.994;2023-08-12T01:07:48;19.80;99.90
59128;DHT22;44912;52.754;5.994;2023-08-12T01:10:14;19.80;99.90
59128;DHT22;44912;52.754;5.994;2023-08-12T01:12:47;19.80;99.90
59128;DHT22;44912;52.754;5.994;2023-08-12T01:15:18;19.80;99.90
59128;DHT22;44912;52.754;5.994;2023-08-12T01:17:47;19.70;99.90
59128;DHT22;44912;52.754;5.994;2023-08-12T01:20:18;19.70;99.90
59128;DHT22;44912;52.754;5.994;2023-08-12T01:22:56;19.70;99.90
59128;DHT22;44912;52.754;5.994;2023-08-12T01:25:25;19.70;99.90
59128;DHT22;44912;52.754;5.994;2023-08-12T01:27:51;19.60;99.90
59128;DHT22;44912;52.754;5.994;2023-08-12T01:30:18;19.60;99.90
59128;DHT22;44912;52.754;5.994;2023-08-12T01:32:57;19.50;99.90
59128;DHT22;44912;52.754;5.994;2023-08-12T01:35:36;19.50;99.90
59128;DHT22;44912;52.754;5.994;2023-08-12T01:38:05;19.40;99.90
59128;DHT22;44912;52.754;5.994;2023-08-12T01:40:32;19.40;99.90
59128;DHT22;44912;52.754;5.994;2023-08-12T01:42:59;19.40;99.90
59128;DHT22;44912;52.754;5.994;2023-08-12T01:45:24;19.40;99.90
59128;DHT22;44912;52.754;5.994;2023-08-12T01:47:50;19.40;99.90
59128;DHT22;44912;52.754;5.994;2023-08-12T01:50:16;19.40;99.90
59128;DHT22;44912;52.754;5.994;2023-08-12T01:52:42;19.50;99.90
59128;DHT22;44912;52.754;5.994;2023-08-12T01:55:08;19.40;99.90
59128;DHT22;44912;52.754;5.994;2023-08-12T01:57:33;19.50;99.90
59128;DHT22;44912;52.754;5.994;2023-08-12T02:00:00;19.50;99.90
59128;DHT22;44912;52.754;5.994;2023-08-12T02:02:26;19.50;99.90
59128;DHT22;44912;52.754;5.994;2023-08-12T02:04:51;19.40;99.90
59128;DHT22;44912;52.754;5.994;2023-08-12T02:07:17;19.40;99.90
59128;DHT22;44912;52.754;5.994;2023-08-12T02:09:42;19.50;99.90
59128;DHT22;44912;52.754;5.994;2023-08-12T02:12:08;19.40;99.90
59128;DHT22;44912;52.754;5.994;2023-08-12T02:14:33;19.40;99.90
59128;DHT22;44912;52.754;5.994;2023-08-12T02:16:59;19.50;99.90
59128;DHT22;44912;52.754;5.994;2023-08-12T02:19:25;19.50;99.90
59128;DHT22;44912;52.754;5.994;2023-08-12T02:21:50;19.50;99.90
59128;DHT22;44912;52.754;5.994;2023-08-12T02:24:16;19.50;99.90
59128;DHT22;44912;52.754;5.994;2023-08-12T02:26:41;19.50;99.90
59128;DHT22;44912;52.754;5.994;2023-08-12T02:29:07;19.50;99.90
59128;DHT22;44912;52.754;5.994;2023-08-12T02:31:32;19.60;99.90
59128;DHT22;44912;52.754;5.994;2023-08-12T02:33:58;19.50;99.90
59128;DHT22;44912;52.754;5.994;2023-08-12T02:36:23;19.60;99.90
59128;DHT22;44912;52.754;5.994;2023-08-12T02:38:50;19.60;99.90
59128;DHT22;44912;52.754;5.994;2023-08-12T02:41:16;19.60;99.90
59128;DHT22;44912;52.754;5.994;2023-08-12T02:43:41;19.50;99.90
59128;DHT22;44912;52.754;5.994;2023-08-12T02:46:07;19.60;99.90
59128;DHT22;44912;52.754;5.994;2023-08-12T02:48:32;19.60;99.90
59128;DHT22;44912;52.754;5.994;2023-08-12T02:50:58;19.60;99.90
59128;DHT22;44912;52.754;5.994;2023-08-12T02:53:23;19.60;99.90
59128;DHT22;44912;52.754;5.994;2023-08-12T02:55:49;19.70;99.90
59128;DHT22;44912;52.754;5.994;2023-08-12T02:58:14;19.70;99.90
59128;DHT22;44912;52.754;5.994;2023-08-12T03:00:43;19.70;99.90
59128;DHT22;44912;52.754;5.994;2023-08-12T03:03:11;19.70;99.90
59128;DHT22;44912;52.754;5.994;2023-08-12T03:05:37;19.70;99.90
59128;DHT22;44912;52.754;5.994;2023-08-12T03:08:02;19.80;99.90
59128;DHT22;44912;52.754;5.994;2023-08-12T03:10:29;19.70;99.90
59128;DHT22;44912;52.754;5.994;2023-08-12T03:12:55;19.80;99.90
59128;DHT22;44912;52.754;5.994;2023-08-12T03:15:21;19.70;99.90
59128;DHT22;44912;52.754;5.994;2023-08-12T03:17:46;19.80;99.90
59128;DHT22;44912;52.754;5.994;2023-08-12T03:20:15;19.70;99.90
59128;DHT22;44912;52.754;5.994;2023-08-12T03:22:40;19.80;99.90
59128;DHT22;44912;52.754;5.994;2023-08-12T03:25:06;19.80;99.90
59128;DHT22;44912;52.754;5.994;2023-08-12T03:27:32;19.80;99.90
59128;DHT22;44912;52.754;5.994;2023-08-12T03:29:57;19.70;99.90
59128;DHT22;44912;52.754;5.994;2023-08-12T03:32:24;19.80;99.90
59128;DHT22;44912;52.754;5.994;2023-08-12T03:34:49;19.80;99.90
59128;DHT22;44912;52.754;5.994;2023-08-12T03:37:15;19.80;99.90
59128;DHT22;44912;52.754;5.994;2023-08-12T03:39:40;19.80;99.90
59128;DHT22;44912;52.754;5.994;2023-08-12T03:42:06;19.80;99.90
59128;DHT22;44912;52.754;5.994;2023-08-12T03:44:31;19.80;99.90
59128;DHT22;44912;52.754;5.994;2023-08-12T03:46:57;19.90;99.90
59128;DHT22;44912;52.754;5.994;2023-08-12T03:49:22;19.80;99.90
59128;DHT22;44912;52.754;5.994;2023-08-12T03:51:48;19.90;99.90
59128;DHT22;44912;52.754;5.994;2023-08-12T03:54:13;19.80;99.90
59128;DHT22;44912;52.754;5.994;2023-08-12T03:56:39;19.90;99.90
59128;DHT22;44912;52.754;5.994;2023-08-12T03:59:05;19.90;99.90
59128;DHT22;44912;52.754;5.994;2023-08-12T04:01:30;19.90;99.90
59128;DHT22;44912;52.754;5.994;2023-08-12T04:03:56;19.90;99.90
59128;DHT22;44912;52.754;5.994;2023-08-12T04:06:21;19.90;99.90
59128;DHT22;44912;52.754;5.994;2023-08-12T04:08:47;19.80;99.90
59128;DHT22;44912;52.754;5.994;2023-08-12T04:11:12;19.90;99.90
59128;DHT22;44912;52.754;5.994;2023-08-12T04:13:38;19.80;99.90
59128;DHT22;44912;52.754;5.994;2023-08-12T04:16:03;19.80;99.90
59128;DHT22;44912;52.754;5.994;2023-08-12T04:18:29;19.90;99.90
59128;DHT22;44912;52.754;5.994;2023-08-12T04:20:55;19.90;99.90
59128;DHT22;44912;52.754;5.994;2023-08-12T04:23:20;19.90;99.90
59128;DHT22;44912;52.754;5.994;2023-08-12T04:25:47;19.90;99.90
59128;DHT22;44912;52.754;5.994;2023-08-12T04:28:15;19.90;99.90
59128;DHT22;44912;52.754;5.994;2023-08-12T04:30:42;20.00;99.90
59128;DHT22;44912;52.754;5.994;2023-08-12T04:33:08;19.90;99.90
59128;DHT22;44912;52.754;5.994;2023-08-12T04:35:33;19.90;99.90
59128;DHT22;44912;52.754;5.994;2023-08-12T04:37:59;19.90;99.90
59128;DHT22;44912;52.754;5.994;2023-08-12T04:40:24;19.90;99.90
59128;DHT22;44912;52.754;5.994;2023-08-12T04:42:50;19.90;99.90
59128;DHT22;44912;52.754;5.994;2023-08-12T04:45:15;19.90;99.90
59128;DHT22;44912;52.754;5.994;2023-08-12T04:47:42;19.90;99.90
59128;DHT22;44912;52.754;5.994;2023-08-12T04:50:07;20.00;99.90
59128;DHT22;44912;52.754;5.994;2023-08-12T04:52:33;20.00;99.90
59128;DHT22;44912;52.754;5.994;2023-08-12T04:54:59;20.00;99.90
59128;DHT22;44912;52.754;5.994;2023-08-12T04:57:25;20.00;99.90
59128;DHT22;44912;52.754;5.994;2023-08-12T04:59:50;20.10;99.90
59128;DHT22;44912;52.754;5.994;2023-08-12T05:02:16;20.10;99.90
59128;DHT22;44912;52.754;5.994;2023-08-12T05:04:48;20.10;99.90
59128;DHT22;44912;52.754;5.994;2023-08-12T05:07:13;20.20;99.90
59128;DHT22;44912;52.754;5.994;2023-08-12T05:09:39;20.20;99.90
59128;DHT22;44912;52.754;5.994;2023-08-12T05:12:05;20.10;99.90
59128;DHT22;44912;52.754;5.994;2023-08-12T05:14:31;20.30;99.90
59128;DHT22;44912;52.754;5.994;2023-08-12T05:16:56;20.30;99.90
59128;DHT22;44912;52.754;5.994;2023-08-12T05:19:22;20.40;99.90
59128;DHT22;44912;52.754;5.994;2023-08-12T05:21:47;20.30;99.90
59128;DHT22;44912;52.754;5.994;2023-08-12T05:24:13;20.40;99.90
59128;DHT22;44912;52.754;5.994;2023-08-12T05:26:38;20.40;99.90
59128;DHT22;44912;52.754;5.994;2023-08-12T05:29:04;20.40;99.90
59128;DHT22;44912;52.754;5.994;2023-08-12T05:31:30;20.40;99.90
59128;DHT22;44912;52.754;5.994;2023-08-12T05:33:55;20.50;99.90
59128;DHT22;44912;52.754;5.994;2023-08-12T05:36:21;20.40;99.90
59128;DHT22;44912;52.754;5.994;2023-08-12T05:38:47;20.50;99.90
59128;DHT22;44912;52.754;5.994;2023-08-12T05:41:12;20.40;99.90
59128;DHT22;44912;52.754;5.994;2023-08-12T05:43:38;20.60;99.90
59128;DHT22;44912;52.754;5.994;2023-08-12T05:46:04;20.60;99.90
59128;DHT22;44912;52.754;5.994;2023-08-12T05:48:29;20.60;99.90
59128;DHT22;44912;52.754;5.994;2023-08-12T05:50:55;20.60;99.90
59128;DHT22;44912;52.754;5.994;2023-08-12T05:53:21;20.60;99.90
59128;DHT22;44912;52.754;5.994;2023-08-12T05:55:47;20.60;99.90
59128;DHT22;44912;52.754;5.994;2023-08-12T05:58:13;20.60;99.90
59128;DHT22;44912;52.754;5.994;2023-08-12T06:00:38;20.60;99.90
59128;DHT22;44912;52.754;5.994;2023-08-12T06:03:04;20.70;99.90
59128;DHT22;44912;52.754;5.994;2023-08-12T06:05:29;20.70;99.90
59128;DHT22;44912;52.754;5.994;2023-08-12T06:07:55;20.70;99.90
59128;DHT22;44912;52.754;5.994;2023-08-12T06:10:20;20.60;99.90
59128;DHT22;44912;52.754;5.994;2023-08-12T06:12:46;20.70;99.90
59128;DHT22;44912;52.754;5.994;2023-08-12T06:15:11;20.60;99.90
59128;DHT22;44912;52.754;5.994;2023-08-12T06:17:37;20.60;99.90
59128;DHT22;44912;52.754;5.994;2023-08-12T06:20:02;20.70;99.90
59128;DHT22;44912;52.754;5.994;2023-08-12T06:22:28;20.60;99.90
59128;DHT22;44912;52.754;5.994;2023-08-12T06:24:54;20.70;99.90
59128;DHT22;44912;52.754;5.994;2023-08-12T06:27:19;20.60;99.90
59128;DHT22;44912;52.754;5.994;2023-08-12T06:29:46;20.80;99.90
59128;DHT22;44912;52.754;5.994;2023-08-12T06:32:15;20.70;99.90
59128;DHT22;44912;52.754;5.994;2023-08-12T06:34:41;20.80;99.90
59128;DHT22;44912;52.754;5.994;2023-08-12T06:37:06;20.70;99.90
59128;DHT22;44912;52.754;5.994;2023-08-12T06:39:32;20.80;99.90
59128;DHT22;44912;52.754;5.994;2023-08-12T06:41:58;20.80;99.90
59128;DHT22;44912;52.754;5.994;2023-08-12T06:44:24;20.80;99.90
59128;DHT22;44912;52.754;5.994;2023-08-12T06:46:50;20.80;99.90
59128;DHT22;44912;52.754;5.994;2023-08-12T06:49:17;20.80;99.90
59128;DHT22;44912;52.754;5.994;2023-08-12T06:51:43;20.90;99.90
59128;DHT22;44912;52.754;5.994;2023-08-12T06:54:08;20.80;99.90
59128;DHT22;44912;52.754;5.994;2023-08-12T06:56:34;20.80;99.90
59128;DHT22;44912;52.754;5.994;2023-08-12T06:58:59;20.90;99.90
59128;DHT22;44912;52.754;5.994;2023-08-12T07:01:25;20.80;99.90
59128;DHT22;44912;52.754;5.994;2023-08-12T07:03:50;20.90;99.90
59128;DHT22;44912;52.754;5.994;2023-08-12T07:06:16;20.90;99.90
59128;DHT22;44912;52.754;5.994;2023-08-12T07:08:42;20.90;99.90
59128;DHT22;44912;52.754;5.994;2023-08-12T07:11:07;21.00;99.90
59128;DHT22;44912;52.754;5.994;2023-08-12T07:13:33;21.00;99.90
59128;DHT22;44912;52.754;5.994;2023-08-12T07:15:59;21.10;99.90
59128;DHT22;44912;52.754;5.994;2023-08-12T07:18:24;21.10;99.90
59128;DHT22;44912;52.754;5.994;2023-08-12T07:20:50;21.10;99.90
59128;DHT22;44912;52.754;5.994;2023-08-12T07:23:15;21.10;99.90
59128;DHT22;44912;52.754;5.994;2023-08-12T07:25:41;21.20;99.90
59128;DHT22;44912;52.754;5.994;2023-08-12T07:28:07;21.10;99.90
59128;DHT22;44912;52.754;5.994;2023-08-12T07:30:34;21.10;99.90
59128;DHT22;44912;52.754;5.994;2023-08-12T07:33:00;21.10;99.90
59128;DHT22;44912;52.754;5.994;2023-08-12T07:35:26;21.10;99.90
59128;DHT22;44912;52.754;5.994;2023-08-12T07:37:51;21.00;99.90
59128;DHT22;44912;52.754;5.994;2023-08-12T07:40:17;21.00;99.90
59128;DHT22;44912;52.754;5.994;2023-08-12T07:42:42;21.00;99.90
59128;DHT22;44912;52.754;5.994;2023-08-12T07:45:08;21.00;99.90
59128;DHT22;44912;52.754;5.994;2023-08-12T07:47:34;20.90;99.90
59128;DHT22;44912;52.754;5.994;2023-08-12T07:50:00;20.90;99.90
59128;DHT22;44912;52.754;5.994;2023-08-12T07:52:25;20.90;99.90
59128;DHT22;44912;52.754;5.994;2023-08-12T07:54:51;20.90;99.90
59128;DHT22;44912;52.754;5.994;2023-08-12T07:57:16;20.90;99.90
59128;DHT22;44912;52.754;5.994;2023-08-12T07:59:42;20.80;99.90
59128;DHT22;44912;52.754;5.994;2023-08-12T08:02:08;20.80;99.90
59128;DHT22;44912;52.754;5.994;2023-08-12T08:04:33;20.80;99.90
59128;DHT22;44912;52.754;5.994;2023-08-12T08:07:00;20.80;99.90
59128;DHT22;44912;52.754;5.994;2023-08-12T08:09:25;20.80;99.90
59128;DHT22;44912;52.754;5.994;2023-08-12T08:11:51;20.80;99.90
59128;DHT22;44912;52.754;5.994;2023-08-12T08:14:16;20.80;99.90
59128;DHT22;44912;52.754;5.994;2023-08-12T08:16:42;20.80;99.90
59128;DHT22;44912;52.754;5.994;2023-08-12T08:19:07;20.80;99.90
59128;DHT22;44912;52.754;5.994;2023-08-12T08:21:35;20.80;99.90
59128;DHT22;44912;52.754;5.994;2023-08-12T08:24:01;20.80;99.90
59128;DHT22;44912;52.754;5.994;2023-08-12T08:26:26;20.80;99.90
59128;DHT22;44912;52.754;5.994;2023-08-12T08:28:52;20.70;99.90
59128;DHT22;44912;52.754;5.994;2023-08-12T08:31:17;20.70;99.90
59128;DHT22;44912;52.754;5.994;2023-08-12T08:33:43;20.80;99.90
59128;DHT22;44912;52.754;5.994;2023-08-12T08:36:09;20.80;99.90
59128;DHT22;44912;52.754;5.994;2023-08-12T08:38:34;20.70;99.90
59128;DHT22;44912;52.754;5.994;2023-08-12T08:41:00;20.80;99.90
59128;DHT22;44912;52.754;5.994;2023-08-12T08:43:27;20.90;99.90
59128;DHT22;44912;52.754;5.994;2023-08-12T08:45:54;20.90;99.90
59128;DHT22;44912;52.754;5.994;2023-08-12T08:48:20;20.90;99.90
59128;DHT22;44912;52.754;5.994;2023-08-12T08:50:48;20.80;99.90
59128;DHT22;44912;52.754;5.994;2023-08-12T08:53:14;20.90;99.90
59128;DHT22;44912;52.754;5.994;2023-08-12T08:55:41;20.80;99.90
59128;DHT22;44912;52.754;5.994;2023-08-12T08:58:07;20.70;99.90
59128;DHT22;44912;52.754;5.994;2023-08-12T09:00:32;20.80;99.90
59128;DHT22;44912;52.754;5.994;2023-08-12T09:02:58;20.70;99.90
59128;DHT22;44912;52.754;5.994;2023-08-12T09:05:25;20.70;99.90
59128;DHT22;44912;52.754;5.994;2023-08-12T09:07:51;20.60;99.90
59128;DHT22;44912;52.754;5.994;2023-08-12T09:10:19;20.60;99.90
59128;DHT22;44912;52.754;5.994;2023-08-12T09:12:46;20.60;99.90
59128;DHT22;44912;52.754;5.994;2023-08-12T09:15:12;20.50;99.90
59128;DHT22;44912;52.754;5.994;2023-08-12T09:17:38;20.50;99.90
59128;DHT22;44912;52.754;5.994;2023-08-12T09:20:04;20.50;99.90
59128;DHT22;44912;52.754;5.994;2023-08-12T09:22:37;20.50;99.90
59128;DHT22;44912;52.754;5.994;2023-08-12T09:25:02;20.50;99.90
59128;DHT22;44912;52.754;5.994;2023-08-12T09:27:31;20.40;99.90
59128;DHT22;44912;52.754;5.994;2023-08-12T09:29:57;20.40;99.90
59128;DHT22;44912;52.754;5.994;2023-08-12T09:32:23;20.40;99.90
59128;DHT22;44912;52.754;5.994;2023-08-12T09:34:53;20.50;99.90
59128;DHT22;44912;52.754;5.994;2023-08-12T09:37:20;20.50;99.90
59128;DHT22;44912;52.754;5.994;2023-08-12T09:39:47;20.40;99.90
59128;DHT22;44912;52.754;5.994;2023-08-12T09:42:14;20.30;99.90
59128;DHT22;44912;52.754;5.994;2023-08-12T09:44:40;20.20;99.90
59128;DHT22;44912;52.754;5.994;2023-08-12T09:47:06;20.30;99.90
59128;DHT22;44912;52.754;5.994;2023-08-12T09:49:34;20.30;99.90
59128;DHT22;44912;52.754;5.994;2023-08-12T09:52:01;20.40;99.90
59128;DHT22;44912;52.754;5.994;2023-08-12T09:54:28;20.40;99.90
59128;DHT22;44912;52.754;5.994;2023-08-12T09:56:59;20.40;99.90
59128;DHT22;44912;52.754;5.994;2023-08-12T09:59:33;20.50;99.90
59128;DHT22;44912;52.754;5.994;2023-08-12T10:02:03;20.50;99.90
59128;DHT22;44912;52.754;5.994;2023-08-12T10:04:37;20.50;99.90
59128;DHT22;44912;52.754;5.994;2023-08-12T10:07:05;20.40;99.90
59128;DHT22;44912;52.754;5.994;2023-08-12T10:09:32;20.40;99.90
59128;DHT22;44912;52.754;5.994;2023-08-12T10:11:58;20.50;99.90
59128;DHT22;44912;52.754;5.994;2023-08-12T10:14:24;20.50;99.90
59128;DHT22;44912;52.754;5.994;2023-08-12T10:16:52;20.40;99.90
59128;DHT22;44912;52.754;5.994;2023-08-12T10:19:43;20.50;99.90
59128;DHT22;44912;52.754;5.994;2023-08-12T10:22:10;20.40;99.90
59128;DHT22;44912;52.754;5.994;2023-08-12T10:24:36;20.40;99.90
59128;DHT22;44912;52.754;5.994;2023-08-12T10:27:04;20.20;99.90
59128;DHT22;44912;52.754;5.994;2023-08-12T10:29:30;19.90;99.90
59128;DHT22;44912;52.754;5.994;2023-08-12T10:31:56;19.70;99.90
59128;DHT22;44912;52.754;5.994;2023-08-12T10:34:24;19.30;99.90
59128;DHT22;44912;52.754;5.994;2023-08-12T10:36:57;18.90;99.90
59128;DHT22;44912;52.754;5.994;2023-08-12T10:39:26;18.80;99.90
59128;DHT22;44912;52.754;5.994;2023-08-12T10:41:54;18.70;99.90
59128;DHT22;44912;52.754;5.994;2023-08-12T10:44:21;18.50;99.90
59128;DHT22;44912;52.754;5.994;2023-08-12T10:46:51;18.50;99.90
59128;DHT22;44912;52.754;5.994;2023-08-12T10:49:19;18.60;99.90
59128;DHT22;44912;52.754;5.994;2023-08-12T10:54:21;18.70;99.90
59128;DHT22;44912;52.754;5.994;2023-08-12T10:59:47;18.80;99.90
59128;DHT22;44912;52.754;5.994;2023-08-12T11:02:32;18.60;99.90
59128;DHT22;44912;52.754;5.994;2023-08-12T11:05:08;18.60;99.90
59128;DHT22;44912;52.754;5.994;2023-08-12T11:10:11;18.60;99.90
59128;DHT22;44912;52.754;5.994;2023-08-12T11:12:42;18.60;99.90
59128;DHT22;44912;52.754;5.994;2023-08-12T11:15:11;18.50;99.90
59128;DHT22;44912;52.754;5.994;2023-08-12T11:17:39;18.60;99.90
59128;DHT22;44912;52.754;5.994;2023-08-12T11:20:07;18.40;99.90
59128;DHT22;44912;52.754;5.994;2023-08-12T11:22:42;18.40;99.90
59128;DHT22;44912;52.754;5.994;2023-08-12T11:25:10;18.40;99.90
59128;DHT22;44912;52.754;5.994;2023-08-12T11:27:44;18.30;99.90
59128;DHT22;44912;52.754;5.994;2023-08-12T11:30:20;18.40;99.90
59128;DHT22;44912;52.754;5.994;2023-08-12T11:32:49;18.60;99.90
59128;DHT22;44912;52.754;5.994;2023-08-12T11:35:16;18.70;99.90
59128;DHT22;44912;52.754;5.994;2023-08-12T11:37:45;18.80;99.90
59128;DHT22;44912;52.754;5.994;2023-08-12T11:40:12;18.90;99.90
59128;DHT22;44912;52.754;5.994;2023-08-12T11:42:41;18.80;99.90
59128;DHT22;44912;52.754;5.994;2023-08-12T11:45:07;18.90;99.90
59128;DHT22;44912;52.754;5.994;2023-08-12T11:47:34;18.90;99.90
59128;DHT22;44912;52.754;5.994;2023-08-12T11:50:04;19.00;99.90
59128;DHT22;44912;52.754;5.994;2023-08-12T11:52:31;19.20;99.90
59128;DHT22;44912;52.754;5.994;2023-08-12T11:54:57;19.30;99.90
59128;DHT22;44912;52.754;5.994;2023-08-12T11:57:23;19.50;99.90
59128;DHT22;44912;52.754;5.994;2023-08-12T11:59:50;19.60;99.90
59128;DHT22;44912;52.754;5.994;2023-08-12T12:02:15;19.70;99.90
59128;DHT22;44912;52.754;5.994;2023-08-12T12:04:42;19.70;99.90
59128;DHT22;44912;52.754;5.994;2023-08-12T12:07:25;19.90;99.90
59128;DHT22;44912;52.754;5.994;2023-08-12T12:09:54;20.00;99.90
59128;DHT22;44912;52.754;5.994;2023-08-12T12:12:24;20.00;99.90
59128;DHT22;44912;52.754;5.994;2023-08-12T12:14:52;20.20;99.90
59128;DHT22;44912;52.754;5.994;2023-08-12T12:17:24;20.60;99.90
59128;DHT22;44912;52.754;5.994;2023-08-12T12:19:57;20.80;99.90
59128;DHT22;44912;52.754;5.994;2023-08-12T12:22:28;21.10;99.90
59128;DHT22;44912;52.754;5.994;2023-08-12T12:24:54;21.10;99.90
59128;DHT22;44912;52.754;5.994;2023-08-12T12:27:22;21.20;99.90
59128;DHT22;44912;52.754;5.994;2023-08-12T12:29:49;21.30;99.90
59128;DHT22;44912;52.754;5.994;2023-08-12T12:32:18;21.30;99.90
59128;DHT22;44912;52.754;5.994;2023-08-12T12:34:44;21.40;99.90
59128;DHT22;44912;52.754;5.994;2023-08-12T12:37:09;21.50;99.90
59128;DHT22;44912;52.754;5.994;2023-08-12T12:39:35;21.60;99.90
59128;DHT22;44912;52.754;5.994;2023-08-12T12:42:00;21.80;99.90
59128;DHT22;44912;52.754;5.994;2023-08-12T12:44:26;21.80;99.90
59128;DHT22;44912;52.754;5.994;2023-08-12T12:46:52;21.90;99.90
59128;DHT22;44912;52.754;5.994;2023-08-12T12:49:18;21.90;99.90
59128;DHT22;44912;52.754;5.994;2023-08-12T12:51:43;22.00;99.90
59128;DHT22;44912;52.754;5.994;2023-08-12T12:54:09;22.10;99.90
59128;DHT22;44912;52.754;5.994;2023-08-12T12:56:34;22.20;99.90
59128;DHT22;44912;52.754;5.994;2023-08-12T12:59:00;22.20;99.90
59128;DHT22;44912;52.754;5.994;2023-08-12T13:01:25;22.30;99.90
59128;DHT22;44912;52.754;5.994;2023-08-12T13:03:51;22.30;99.90
59128;DHT22;44912;52.754;5.994;2023-08-12T13:06:16;22.30;99.90
59128;DHT22;44912;52.754;5.994;2023-08-12T13:08:42;22.40;99.90
59128;DHT22;44912;52.754;5.994;2023-08-12T13:11:07;22.50;99.90
59128;DHT22;44912;52.754;5.994;2023-08-12T13:13:33;22.40;99.90
59128;DHT22;44912;52.754;5.994;2023-08-12T13:15:59;22.40;99.90
59128;DHT22;44912;52.754;5.994;2023-08-12T13:18:24;22.50;99.90
59128;DHT22;44912;52.754;5.994;2023-08-12T13:20:51;22.60;99.90
59128;DHT22;44912;52.754;5.994;2023-08-12T13:23:16;22.80;99.90
59128;DHT22;44912;52.754;5.994;2023-08-12T13:25:42;22.70;99.90
59128;DHT22;44912;52.754;5.994;2023-08-12T13:28:07;22.80;99.90
59128;DHT22;44912;52.754;5.994;2023-08-12T13:30:33;22.90;99.90
59128;DHT22;44912;52.754;5.994;2023-08-12T13:32:59;22.90;99.90
59128;DHT22;44912;52.754;5.994;2023-08-12T13:35:24;22.80;99.90
59128;DHT22;44912;52.754;5.994;2023-08-12T13:37:50;22.90;99.90
59128;DHT22;44912;52.754;5.994;2023-08-12T13:40:18;23.00;99.90
59128;DHT22;44912;52.754;5.994;2023-08-12T13:42:44;23.00;99.90
59128;DHT22;44912;52.754;5.994;2023-08-12T13:45:11;23.00;99.90
59128;DHT22;44912;52.754;5.994;2023-08-12T13:47:40;23.10;99.90
59128;DHT22;44912;52.754;5.994;2023-08-12T13:50:06;23.20;99.90
59128;DHT22;44912;52.754;5.994;2023-08-12T13:52:31;22.90;99.90
59128;DHT22;44912;52.754;5.994;2023-08-12T13:54:57;22.90;99.90
59128;DHT22;44912;52.754;5.994;2023-08-12T13:57:23;23.00;99.90
59128;DHT22;44912;52.754;5.994;2023-08-12T13:59:48;23.00;99.90
59128;DHT22;44912;52.754;5.994;2023-08-12T14:02:15;23.10;99.90
59128;DHT22;44912;52.754;5.994;2023-08-12T14:04:41;23.10;99.90
59128;DHT22;44912;52.754;5.994;2023-08-12T14:07:06;23.00;99.90
59128;DHT22;44912;52.754;5.994;2023-08-12T14:09:33;23.00;99.90
59128;DHT22;44912;52.754;5.994;2023-08-12T14:11:59;23.00;99.90
59128;DHT22;44912;52.754;5.994;2023-08-12T14:14:25;23.00;99.90
59128;DHT22;44912;52.754;5.994;2023-08-12T14:16:54;23.00;99.90
59128;DHT22;44912;52.754;5.994;2023-08-12T14:19:19;23.00;99.90
59128;DHT22;44912;52.754;5.994;2023-08-12T14:21:45;22.90;99.90
59128;DHT22;44912;52.754;5.994;2023-08-12T14:24:11;22.90;99.90
59128;DHT22;44912;52.754;5.994;2023-08-12T14:26:38;22.90;99.90
59128;DHT22;44912;52.754;5.994;2023-08-12T14:29:04;23.00;99.90
59128;DHT22;44912;52.754;5.994;2023-08-12T14:31:29;23.10;99.90
59128;DHT22;44912;52.754;5.994;2023-08-12T14:33:55;23.10;99.90
59128;DHT22;44912;52.754;5.994;2023-08-12T14:36:20;23.00;99.90
59128;DHT22;44912;52.754;5.994;2023-08-12T14:38:46;23.00;99.90
59128;DHT22;44912;52.754;5.994;2023-08-12T14:41:11;22.90;99.90
59128;DHT22;44912;52.754;5.994;2023-08-12T14:43:37;22.90;99.90
59128;DHT22;44912;52.754;5.994;2023-08-12T14:46:03;22.90;99.90
59128;DHT22;44912;52.754;5.994;2023-08-12T14:48:30;22.90;99.90
59128;DHT22;44912;52.754;5.994;2023-08-12T14:50:56;22.90;99.90
59128;DHT22;44912;52.754;5.994;2023-08-12T14:53:21;22.90;99.90
59128;DHT22;44912;52.754;5.994;2023-08-12T14:55:47;23.00;99.90
59128;DHT22;44912;52.754;5.994;2023-08-12T14:58:12;23.00;99.90
59128;DHT22;44912;52.754;5.994;2023-08-12T15:00:38;23.00;99.90
59128;DHT22;44912;52.754;5.994;2023-08-12T15:03:04;23.00;99.90
59128;DHT22;44912;52.754;5.994;2023-08-12T15:05:29;23.00;99.90
59128;DHT22;44912;52.754;5.994;2023-08-12T15:07:55;22.90;99.90
59128;DHT22;44912;52.754;5.994;2023-08-12T15:10:20;23.00;99.90
59128;DHT22;44912;52.754;5.994;2023-08-12T15:12:46;23.10;99.90
59128;DHT22;44912;52.754;5.994;2023-08-12T15:15:12;23.20;99.90
59128;DHT22;44912;52.754;5.994;2023-08-12T15:17:38;23.20;99.90
59128;DHT22;44912;52.754;5.994;2023-08-12T15:20:04;23.20;99.90
59128;DHT22;44912;52.754;5.994;2023-08-12T15:22:31;23.10;99.90
59128;DHT22;44912;52.754;5.994;2023-08-12T15:24:57;23.10;99.90
59128;DHT22;44912;52.754;5.994;2023-08-12T15:27:22;23.10;99.90
59128;DHT22;44912;52.754;5.994;2023-08-12T15:29:48;23.10;99.90
59128;DHT22;44912;52.754;5.994;2023-08-12T15:32:14;23.00;99.90
59128;DHT22;44912;52.754;5.994;2023-08-12T15:34:39;22.90;99.90